createdAt,value
2022-09-01T00:01:46.508Z,14.40
2022-09-01T00:04:32.885Z,14.61
2022-09-01T00:07:18.826Z,14.84
2022-09-01T00:10:07.374Z,14.83
2022-09-01T00:12:53.665Z,15.45
2022-09-01T00:15:40.171Z,15.90
2022-09-01T00:18:26.539Z,16.03
2022-09-01T00:21:13.078Z,16.17
2022-09-01T00:24:00.624Z,16.35
2022-09-01T00:26:47.042Z,16.56
2022-09-01T00:29:33.458Z,16.50
2022-09-01T00:32:19.826Z,16.17
2022-09-01T00:35:06.770Z,16.05
2022-09-01T00:37:52.496Z,16.02
2022-09-01T00:40:38.811Z,15.92
2022-09-01T00:43:44.824Z,15.73
2022-09-01T00:46:37.006Z,15.77
2022-09-01T00:49:43.677Z,16.19
2022-09-01T00:52:34.590Z,16.46
2022-09-01T00:55:27.201Z,16.65
2022-09-01T00:58:19.430Z,16.67
2022-09-01T01:01:07.603Z,16.64
2022-09-01T01:03:54.543Z,16.58
2022-09-01T01:06:41.677Z,16.59
2022-09-01T01:09:33.653Z,16.46
2022-09-01T01:12:20.584Z,16.66
2022-09-01T01:15:12.041Z,16.55
2022-09-01T01:17:58.009Z,16.60
2022-09-01T01:21:03.502Z,15.93
2022-09-01T01:23:56.558Z,15.47
2022-09-01T01:26:42.507Z,15.11
2022-09-01T01:29:32.754Z,15.49
2022-09-01T01:32:20.617Z,15.50
2022-09-01T01:35:06.911Z,15.32
2022-09-01T01:37:54.472Z,15.33
2022-09-01T01:40:41.494Z,15.57
2022-09-01T01:43:29.130Z,15.85
2022-09-01T01:46:28.683Z,15.72
2022-09-01T01:49:20.002Z,15.65
2022-09-01T01:52:08.364Z,15.53
2022-09-01T01:54:56.949Z,15.29
2022-09-01T01:57:49.007Z,14.80
2022-09-01T02:00:57.001Z,14.82
2022-09-01T02:04:11.988Z,15.13
2022-09-01T02:06:59.438Z,15.59
2022-09-01T02:09:48.753Z,15.81
2022-09-01T02:12:42.875Z,15.95
2022-09-01T02:15:44.554Z,16.03
2022-09-01T02:18:36.637Z,15.92
2022-09-01T02:21:24.397Z,15.98
2022-09-01T02:24:11.505Z,15.94
2022-09-01T02:27:00.562Z,15.83
2022-09-01T02:29:51.412Z,15.64
2022-09-01T02:32:37.497Z,15.45
2022-09-01T02:35:23.857Z,15.15
2022-09-01T02:38:10.567Z,14.84
2022-09-01T02:40:58.501Z,14.35
2022-09-01T02:43:46.338Z,13.72
2022-09-01T02:46:32.866Z,13.46
2022-09-01T02:49:21.604Z,13.09
2022-09-01T02:52:08.439Z,13.20
2022-09-01T02:54:55.784Z,13.38
2022-09-01T02:57:43.063Z,13.54
2022-09-01T03:00:34.861Z,13.88
2022-09-01T03:03:44.855Z,14.29
2022-09-01T03:06:34.587Z,14.18
2022-09-01T03:09:21.371Z,13.80
2022-09-01T03:12:07.571Z,13.61
2022-09-01T03:14:54.598Z,13.95
2022-09-01T03:17:41.845Z,13.95
2022-09-01T03:20:30.328Z,13.85
2022-09-01T03:23:19.571Z,13.96
2022-09-01T03:26:07.331Z,13.61
2022-09-01T03:28:53.398Z,13.70
2022-09-01T03:31:39.573Z,13.65
2022-09-01T03:34:26.908Z,13.45
2022-09-01T03:37:14.049Z,13.17
2022-09-01T03:40:00.030Z,12.78
2022-09-01T03:42:46.702Z,12.73
2022-09-01T03:45:38.565Z,12.39
2022-09-01T03:48:26.703Z,12.18
2022-09-01T03:51:14.426Z,11.91
2022-09-01T03:54:00.532Z,12.28
2022-09-01T03:56:46.934Z,12.21
2022-09-01T03:59:43.344Z,12.39
2022-09-01T04:02:30.735Z,12.27
2022-09-01T04:05:22.994Z,12.79
2022-09-01T04:08:12.224Z,13.26
2022-09-01T04:11:04.110Z,13.57
2022-09-01T04:13:52.960Z,14.08
2022-09-01T04:16:58.179Z,14.27
2022-09-01T04:19:44.852Z,14.69
2022-09-01T04:22:32.108Z,14.67
2022-09-01T04:25:26.827Z,14.77
2022-09-01T04:28:23.032Z,14.53
2022-09-01T04:31:14.904Z,14.31
2022-09-01T04:34:02.149Z,14.03
2022-09-01T04:36:49.995Z,13.95
2022-09-01T04:39:52.610Z,13.74
2022-09-01T04:42:41.930Z,13.75
2022-09-01T04:45:29.572Z,13.64
2022-09-01T04:48:15.545Z,13.86
2022-09-01T04:51:05.868Z,14.05
2022-09-01T04:53:59.127Z,14.23
2022-09-01T04:56:49.892Z,14.26
2022-09-01T04:59:36.222Z,14.19
2022-09-01T05:02:27.192Z,14.38
2022-09-01T05:05:13.271Z,14.30
2022-09-01T05:08:00.555Z,14.49
2022-09-01T05:10:53.665Z,14.61
2022-09-01T05:13:51.311Z,14.67
2022-09-01T05:16:41.142Z,15.04
2022-09-01T05:19:29.917Z,15.09
2022-09-01T05:22:23.158Z,15.16
2022-09-01T05:25:16.807Z,15.24
2022-09-01T05:28:04.072Z,15.27
2022-09-01T05:30:54.445Z,15.33
2022-09-01T05:33:46.064Z,15.59
2022-09-01T05:36:34.617Z,15.70
2022-09-01T05:39:21.818Z,15.69
2022-09-01T05:42:08.905Z,15.95
2022-09-01T05:44:57.990Z,15.84
2022-09-01T05:47:44.091Z,16.16
2022-09-01T05:50:31.773Z,16.35
2022-09-01T05:53:20.403Z,16.42
2022-09-01T05:56:09.846Z,16.47
2022-09-01T06:02:09.463Z,16.73
2022-09-01T06:04:59.911Z,16.89
2022-09-01T06:07:51.017Z,16.94
2022-09-01T06:10:40.025Z,17.03
2022-09-01T06:13:27.563Z,16.96
2022-09-01T06:16:18.460Z,17.26
2022-09-01T06:19:04.916Z,17.15
2022-09-01T06:21:53.697Z,17.17
2022-09-01T06:24:43.519Z,17.21
2022-09-01T06:27:38.929Z,17.43
2022-09-01T06:30:27.683Z,17.60
2022-09-01T06:33:26.919Z,17.70
2022-09-01T06:36:41.029Z,17.50
2022-09-01T06:39:31.787Z,17.60
2022-09-01T06:42:18.665Z,17.70
2022-09-01T06:45:19.180Z,17.67
2022-09-01T06:48:08.863Z,17.61
2022-09-01T06:51:20.929Z,17.49
2022-09-01T07:00:31.865Z,18.01
2022-09-01T07:03:25.722Z,18.09
2022-09-01T07:09:48.006Z,18.29
2022-09-01T07:13:07.582Z,18.57
2022-09-01T07:19:16.623Z,18.76
2022-09-01T07:22:35.853Z,18.89
2022-09-01T07:25:23.750Z,18.99
2022-09-01T07:28:17.697Z,19.03
2022-09-01T07:42:57.953Z,17.55
2022-09-01T07:44:12.031Z,19.15
2022-09-01T07:48:08.164Z,19.21
2022-09-01T07:54:13.914Z,19.44
2022-09-01T07:57:00.427Z,19.34
2022-09-01T07:59:54.548Z,19.45
2022-09-01T08:02:58.738Z,19.47
2022-09-01T08:05:46.536Z,19.59
2022-09-01T08:08:35.854Z,19.36
2022-09-01T08:11:58.188Z,19.42
2022-09-01T08:14:34.256Z,19.58
2022-09-01T08:20:35.187Z,19.51
2022-09-01T08:23:29.429Z,19.56
2022-09-01T08:26:18.451Z,19.57
2022-09-01T08:29:04.047Z,19.59
2022-09-01T08:31:59.309Z,19.51
2022-09-01T08:34:45.510Z,19.37
2022-09-01T08:37:32.396Z,19.69
2022-09-01T08:40:23.377Z,19.72
2022-09-01T08:43:31.334Z,19.64
2022-09-01T08:46:28.163Z,19.53
2022-09-01T08:49:28.310Z,19.41
2022-09-01T08:52:38.213Z,19.33
2022-09-01T08:55:38.419Z,19.55
2022-09-01T08:58:24.388Z,19.74
2022-09-01T09:01:46.375Z,19.87
2022-09-01T09:04:49.450Z,19.97
2022-09-01T09:08:06.627Z,19.92
2022-09-01T09:11:00.645Z,20.10
2022-09-01T09:14:28.836Z,19.83
2022-09-01T09:17:16.252Z,19.61
2022-09-01T09:20:04.227Z,19.69
2022-09-01T09:22:51.294Z,19.95
2022-09-01T09:25:37.436Z,20.06
2022-09-01T09:28:22.850Z,20.20
2022-09-01T09:31:32.184Z,20.29
2022-09-01T09:34:19.309Z,20.19
2022-09-01T09:37:28.343Z,20.20
2022-09-01T09:40:18.373Z,19.95
2022-09-01T09:43:06.869Z,19.97
2022-09-01T09:46:25.270Z,19.90
2022-09-01T09:49:34.869Z,19.64
2022-09-01T09:52:23.309Z,19.38
2022-09-01T09:55:28.024Z,18.88
2022-09-01T09:58:14.260Z,18.87
2022-09-01T10:01:06.279Z,18.86
2022-09-01T10:03:56.189Z,19.11
2022-09-01T10:06:46.995Z,19.30
2022-09-01T10:09:33.087Z,19.71
2022-09-01T10:12:24.242Z,19.76
2022-09-01T10:15:14.144Z,20.04
2022-09-01T10:18:28.916Z,20.46
2022-09-01T10:21:27.226Z,20.60
2022-09-01T10:24:39.083Z,20.54
2022-09-01T10:27:34.208Z,20.33
2022-09-01T10:30:22.160Z,20.66
2022-09-01T10:33:19.199Z,20.92
2022-09-01T10:36:07.840Z,20.74
2022-09-01T10:38:59.944Z,20.72
2022-09-01T10:42:00.593Z,20.99
2022-09-01T10:45:02.182Z,20.87
2022-09-01T10:47:48.119Z,20.67
2022-09-01T10:50:36.875Z,20.24
2022-09-01T10:56:44.327Z,19.79
2022-09-01T10:59:32.863Z,19.62
2022-09-01T11:02:24.802Z,19.56
2022-09-01T11:05:15.256Z,19.52
2022-09-01T11:08:28.427Z,19.56
2022-09-01T11:11:24.076Z,19.67
2022-09-01T11:14:23.808Z,19.87
2022-09-01T11:17:22.460Z,20.07
2022-09-01T11:20:26.741Z,20.29
2022-09-01T11:23:22.106Z,20.38
2022-09-01T11:26:53.327Z,20.59
2022-09-01T11:29:57.358Z,20.89
2022-09-01T11:32:47.137Z,21.09
2022-09-01T11:35:36.035Z,21.11
2022-09-01T11:38:22.411Z,20.91
2022-09-01T11:41:08.722Z,20.75
2022-09-01T11:43:58.200Z,20.27
2022-09-01T11:46:45.392Z,20.00
2022-09-01T11:49:54.972Z,19.72
2022-09-01T11:52:41.612Z,19.66
2022-09-01T11:55:45.539Z,19.75
2022-09-01T11:58:39.175Z,19.51
2022-09-01T12:01:35.499Z,19.56
2022-09-01T12:04:24.887Z,19.52
2022-09-01T12:07:14.101Z,19.33
2022-09-01T12:10:00.824Z,19.50
2022-09-01T12:12:47.291Z,19.42
2022-09-01T12:15:54.911Z,19.36
2022-09-01T12:18:48.848Z,19.49
2022-09-01T12:21:43.076Z,19.54
2022-09-01T12:24:32.774Z,19.55
2022-09-01T12:27:18.758Z,19.60
2022-09-01T12:30:05.056Z,19.59
2022-09-01T12:32:51.279Z,19.69
2022-09-01T12:35:38.102Z,19.52
2022-09-01T12:38:25.754Z,19.79
2022-09-01T12:41:44.555Z,19.92
2022-09-01T12:44:43.893Z,19.82
2022-09-01T12:47:50.292Z,19.94
2022-09-01T12:50:43.625Z,19.62
2022-09-01T12:53:32.476Z,19.79
2022-09-01T12:56:31.107Z,19.87
2022-09-01T12:59:37.417Z,20.05
2022-09-01T13:02:28.897Z,20.24
2022-09-01T13:05:51.970Z,20.29
2022-09-01T13:08:38.463Z,20.23
2022-09-01T13:11:24.370Z,20.21
2022-09-01T13:14:10.541Z,20.32
2022-09-01T13:16:56.025Z,20.17
2022-09-01T13:19:42.466Z,20.00
2022-09-01T13:22:28.010Z,20.23
2022-09-01T13:25:17.699Z,20.15
2022-09-01T13:28:03.845Z,19.94
2022-09-01T13:31:28.759Z,20.30
2022-09-01T13:34:22.429Z,20.32
2022-09-01T13:37:05.926Z,20.61
2022-09-01T13:39:51.812Z,20.73
2022-09-01T13:42:37.853Z,20.74
2022-09-01T13:45:25.764Z,20.73
2022-09-01T13:48:16.206Z,20.73
2022-09-01T13:51:18.994Z,20.68
2022-09-01T13:54:05.241Z,20.52
2022-09-01T13:56:52.647Z,20.63
2022-09-01T13:59:39.087Z,20.61
2022-09-01T14:02:26.473Z,20.74
2022-09-01T14:05:12.985Z,20.75
2022-09-01T14:07:59.316Z,20.44
2022-09-01T14:10:48.890Z,20.28
2022-09-01T14:13:35.514Z,20.22
2022-09-01T14:16:21.814Z,19.89
2022-09-01T14:19:07.306Z,19.72
2022-09-01T14:21:53.607Z,19.61
2022-09-01T14:24:40.953Z,19.59
2022-09-01T14:27:27.390Z,19.47
2022-09-01T14:30:29.162Z,19.35
2022-09-01T14:33:18.344Z,19.47
2022-09-01T14:36:04.350Z,19.61
2022-09-01T14:38:50.832Z,19.62
2022-09-01T14:41:36.804Z,19.81
2022-09-01T14:44:22.334Z,19.86
2022-09-01T14:47:08.418Z,20.15
2022-09-01T14:49:58.414Z,19.96
2022-09-01T14:52:44.331Z,20.03
2022-09-01T14:55:30.673Z,20.17
2022-09-01T14:58:17.012Z,20.22
2022-09-01T15:01:17.596Z,20.26
2022-09-01T15:04:08.479Z,20.59
2022-09-01T15:06:54.602Z,20.45
2022-09-01T15:09:40.683Z,20.56
2022-09-01T15:12:32.081Z,20.56
2022-09-01T15:15:20.113Z,20.59
2022-09-01T15:18:06.815Z,20.59
2022-09-01T15:20:53.915Z,20.75
2022-09-01T15:23:39.930Z,20.47
2022-09-01T15:26:26.091Z,20.35
2022-09-01T15:29:13.345Z,20.41
2022-09-01T15:31:58.920Z,20.25
2022-09-01T15:34:45.536Z,20.20
2022-09-01T15:37:35.386Z,19.99
2022-09-01T15:40:23.728Z,20.10
2022-09-01T15:43:10.007Z,19.86
2022-09-01T15:45:58.633Z,19.73
2022-09-01T15:48:44.649Z,19.70
2022-09-01T15:51:39.637Z,19.83
2022-09-01T15:54:30.228Z,19.63
2022-09-01T15:57:18.465Z,19.67
2022-09-01T16:00:05.516Z,19.65
2022-09-01T16:03:01.835Z,19.62
2022-09-01T16:05:47.751Z,19.35
2022-09-01T16:08:34.602Z,19.39
2022-09-01T16:11:23.738Z,19.43
2022-09-01T16:14:12.396Z,19.65
2022-09-01T16:17:22.614Z,19.78
2022-09-01T16:20:11.457Z,19.55
2022-09-01T16:23:07.220Z,19.55
2022-09-01T16:25:53.800Z,19.51
2022-09-01T16:28:46.768Z,19.25
2022-09-01T16:31:37.493Z,19.13
2022-09-01T16:34:27.741Z,18.95
2022-09-01T16:37:26.858Z,18.93
2022-09-01T16:40:30.522Z,18.93
2022-09-01T16:43:27.488Z,18.88
2022-09-01T16:46:30.378Z,18.70
2022-09-01T16:49:19.456Z,18.85
2022-09-01T16:52:43.740Z,18.92
2022-09-01T16:55:44.448Z,18.72
2022-09-01T16:58:44.605Z,18.61
2022-09-01T17:01:48.651Z,18.57
2022-09-01T17:04:58.413Z,18.53
2022-09-01T17:08:22.612Z,18.45
2022-09-01T17:11:49.076Z,18.36
2022-09-01T17:14:44.419Z,18.23
2022-09-01T17:18:06.493Z,18.15
2022-09-01T17:20:58.004Z,18.00
2022-09-01T17:24:29.149Z,17.96
2022-09-01T17:27:21.329Z,17.72
2022-09-01T17:30:07.709Z,17.77
2022-09-01T17:33:17.615Z,17.82
2022-09-01T17:36:10.683Z,17.75
2022-09-01T17:39:06.420Z,17.53
2022-09-01T17:42:07.497Z,17.61
2022-09-01T17:44:56.701Z,17.44
2022-09-01T17:48:02.715Z,17.34
2022-09-01T17:51:30.312Z,17.19
2022-09-01T17:54:25.702Z,17.11
2022-09-01T17:57:24.156Z,17.04
2022-09-01T18:00:25.229Z,16.78
2022-09-01T18:03:34.703Z,16.89
2022-09-01T18:06:31.795Z,16.88
2022-09-01T18:09:20.628Z,16.84
2022-09-01T18:12:09.905Z,16.69
2022-09-01T18:15:17.124Z,16.63
2022-09-01T18:18:33.119Z,16.56
2022-09-01T18:21:53.757Z,16.43
2022-09-01T18:24:54.636Z,16.30
2022-09-01T18:27:43.599Z,16.12
2022-09-01T18:30:52.100Z,16.16
2022-09-01T18:33:44.602Z,16.09
2022-09-01T18:36:55.475Z,16.01
2022-09-01T18:40:00.141Z,16.03
2022-09-01T18:43:38.876Z,15.97
2022-09-01T18:46:37.846Z,15.92
2022-09-01T18:50:01.005Z,15.90
2022-09-01T18:53:11.790Z,15.93
2022-09-01T18:56:04.688Z,16.01
2022-09-01T18:59:01.939Z,15.87
2022-09-01T19:02:27.712Z,15.76
2022-09-01T19:05:33.457Z,15.80
2022-09-01T19:09:02.648Z,15.78
2022-09-01T19:12:13.916Z,15.95
2022-09-01T19:15:15.097Z,16.05
2022-09-01T19:18:19.732Z,16.30
2022-09-01T19:21:20.696Z,16.26
2022-09-01T19:24:21.657Z,16.34
2022-09-01T19:27:20.080Z,16.26
2022-09-01T19:30:07.019Z,16.22
2022-09-01T19:32:53.783Z,16.10
2022-09-01T19:35:43.503Z,16.05
2022-09-01T19:38:35.339Z,16.24
2022-09-01T19:41:45.551Z,16.08
2022-09-01T19:44:50.779Z,15.97
2022-09-01T19:47:55.792Z,16.02
2022-09-01T19:50:54.722Z,15.98
2022-09-01T19:54:09.471Z,15.94
2022-09-01T19:57:18.496Z,16.11
2022-09-01T20:00:19.458Z,16.30
2022-09-01T20:03:08.696Z,16.38
2022-09-01T20:06:02.290Z,16.67
2022-09-01T20:09:17.257Z,16.94
2022-09-01T20:12:25.550Z,17.10
2022-09-01T20:15:21.870Z,17.14
2022-09-01T20:18:16.991Z,17.20
2022-09-01T20:21:08.917Z,17.18
2022-09-01T20:24:17.092Z,17.28
2022-09-01T20:27:32.417Z,17.36
2022-09-01T20:30:25.233Z,17.28
2022-09-01T20:33:26.309Z,17.36
2022-09-01T20:36:32.479Z,17.61
2022-09-01T20:39:46.763Z,17.54
2022-09-01T20:42:37.365Z,17.78
2022-09-01T20:45:25.311Z,17.36
2022-09-01T20:48:38.468Z,17.55
2022-09-01T20:51:40.396Z,17.59
2022-09-01T20:54:39.348Z,17.63
2022-09-01T20:57:44.294Z,17.84
2022-09-01T21:00:33.018Z,17.96
2022-09-01T21:03:34.280Z,17.97
2022-09-01T21:06:45.671Z,18.02
2022-09-01T21:09:57.376Z,17.88
2022-09-01T21:12:49.305Z,17.74
2022-09-01T21:15:47.533Z,17.67
2022-09-01T21:18:36.432Z,17.66
2022-09-01T21:21:28.178Z,17.38
2022-09-01T21:24:13.976Z,17.49
2022-09-01T21:27:07.358Z,17.43
2022-09-01T21:30:05.326Z,17.42
2022-09-01T21:32:53.465Z,17.43
2022-09-01T21:35:39.621Z,17.23
2022-09-01T21:38:27.096Z,17.33
2022-09-01T21:41:13.538Z,17.27
2022-09-01T21:43:59.337Z,17.34
2022-09-01T21:46:45.269Z,17.23
2022-09-01T21:49:30.860Z,17.14
2022-09-01T21:52:19.427Z,17.08
2022-09-01T21:55:07.145Z,16.85
2022-09-01T21:57:53.474Z,16.33
2022-09-01T22:00:39.473Z,16.05
2022-09-01T22:03:26.238Z,15.96
2022-09-01T22:06:12.658Z,16.01
2022-09-01T22:09:01.615Z,15.98
2022-09-01T22:11:48.277Z,15.89
2022-09-01T22:14:34.439Z,15.71
2022-09-01T22:17:20.282Z,15.57
2022-09-01T22:20:09.476Z,15.32
2022-09-01T22:22:56.750Z,15.21
2022-09-01T22:25:45.289Z,15.01
2022-09-01T22:28:31.483Z,14.79
2022-09-01T22:31:19.739Z,14.64
2022-09-01T22:34:07.236Z,14.60
2022-09-01T22:36:53.309Z,14.42
2022-09-01T22:39:39.217Z,14.24
2022-09-01T22:42:25.091Z,13.97
2022-09-01T22:45:12.386Z,14.17
2022-09-01T22:47:58.180Z,14.10
2022-09-01T22:50:45.196Z,14.01
2022-09-01T22:53:31.337Z,14.00
2022-09-01T22:56:20.621Z,13.91
2022-09-01T22:59:09.900Z,13.96
2022-09-01T23:01:56.067Z,13.69
2022-09-01T23:04:42.546Z,13.89
2022-09-01T23:07:28.779Z,13.81
2022-09-01T23:10:15.545Z,13.81
2022-09-01T23:13:01.474Z,13.54
2022-09-01T23:15:47.618Z,13.67
2022-09-01T23:18:40.197Z,13.78
2022-09-01T23:21:29.410Z,13.75
2022-09-01T23:24:16.317Z,13.96
2022-09-01T23:27:06.262Z,13.99
2022-09-01T23:29:52.628Z,13.97
2022-09-01T23:32:41.014Z,13.87
2022-09-01T23:35:27.121Z,13.82
2022-09-01T23:38:14.326Z,13.63
2022-09-01T23:41:01.454Z,13.59
2022-09-01T23:43:47.432Z,13.51
2022-09-01T23:46:37.394Z,13.18
2022-09-01T23:49:23.746Z,13.26
2022-09-01T23:52:09.306Z,13.32
2022-09-01T23:54:55.996Z,13.34
2022-09-01T23:57:41.975Z,13.12
